sensor_id;sensor_type;location;lat;lon;timestamp;temperature;humidity
1447;DHT22;717;51.522;7.266;2023-08-30T00:02:03;21.50;99.90
1447;DHT22;717;51.522;7.266;2023-08-30T00:04:35;21.50;99.90
1447;DHT22;717;51.522;7.266;2023-08-30T00:07:05;21.50;99.90
1447;DHT22;717;51.522;7.266;2023-08-30T00:09:35;21.50;99.90
1447;DHT22;717;51.522;7.266;2023-08-30T00:12:08;21.50;99.90
1447;DHT22;717;51.522;7.266;2023-08-30T00:14:38;21.40;99.90
1447;DHT22;717;51.522;7.266;2023-08-30T00:17:08;21.40;99.90
1447;DHT22;717;51.522;7.266;2023-08-30T00:19:38;21.40;99.90
1447;DHT22;717;51.522;7.266;2023-08-30T00:22:08;21.40;99.90
1447;DHT22;717;51.522;7.266;2023-08-30T00:24:39;21.40;99.90
1447;DHT22;717;51.522;7.266;2023-08-30T00:27:11;21.40;99.90
1447;DHT22;717;51.522;7.266;2023-08-30T00:29:42;21.40;99.90
1447;DHT22;717;51.522;7.266;2023-08-30T00:32:12;21.30;99.90
1447;DHT22;717;51.522;7.266;2023-08-30T00:34:42;21.30;99.90
1447;DHT22;717;51.522;7.266;2023-08-30T00:37:12;21.30;99.90
1447;DHT22;717;51.522;7.266;2023-08-30T00:39:42;21.30;99.90
1447;DHT22;717;51.522;7.266;2023-08-30T00:42:14;21.20;99.90
1447;DHT22;717;51.522;7.266;2023-08-30T00:44:44;21.20;99.90
1447;DHT22;717;51.522;7.266;2023-08-30T00:47:15;21.20;99.90
1447;DHT22;717;51.522;7.266;2023-08-30T00:49:45;21.20;99.90
1447;DHT22;717;51.522;7.266;2023-08-30T00:52:15;21.10;99.90
1447;DHT22;717;51.522;7.266;2023-08-30T00:54:45;21.10;99.90
1447;DHT22;717;51.522;7.266;2023-08-30T00:57:18;21.10;99.90
1447;DHT22;717;51.522;7.266;2023-08-30T00:59:49;21.00;99.90
1447;DHT22;717;51.522;7.266;2023-08-30T01:02:21;21.00;99.90
1447;DHT22;717;51.522;7.266;2023-08-30T01:04:53;21.00;99.90
1447;DHT22;717;51.522;7.266;2023-08-30T01:07:23;21.00;99.90
1447;DHT22;717;51.522;7.266;2023-08-30T01:09:54;21.00;99.90
1447;DHT22;717;51.522;7.266;2023-08-30T01:12:31;20.90;99.90
1447;DHT22;717;51.522;7.266;2023-08-30T01:15:08;20.90;99.90
1447;DHT22;717;51.522;7.266;2023-08-30T01:17:42;20.90;99.90
1447;DHT22;717;51.522;7.266;2023-08-30T01:20:14;20.90;99.90
1447;DHT22;717;51.522;7.266;2023-08-30T01:22:58;20.80;99.90
1447;DHT22;717;51.522;7.266;2023-08-30T01:25:34;20.80;99.90
1447;DHT22;717;51.522;7.266;2023-08-30T01:28:10;20.80;99.90
1447;DHT22;717;51.522;7.266;2023-08-30T01:30:42;20.80;99.90
1447;DHT22;717;51.522;7.266;2023-08-30T01:33:14;20.70;99.90
1447;DHT22;717;51.522;7.266;2023-08-30T01:35:46;20.70;99.90
1447;DHT22;717;51.522;7.266;2023-08-30T01:38:17;20.70;99.90
1447;DHT22;717;51.522;7.266;2023-08-30T01:40:47;20.60;99.90
1447;DHT22;717;51.522;7.266;2023-08-30T01:43:21;20.60;99.90
1447;DHT22;717;51.522;7.266;2023-08-30T01:45:52;20.60;99.90
1447;DHT22;717;51.522;7.266;2023-08-30T01:48:24;20.60;99.90
1447;DHT22;717;51.522;7.266;2023-08-30T01:50:54;20.60;99.90
1447;DHT22;717;51.522;7.266;2023-08-30T01:53:27;20.50;99.90
1447;DHT22;717;51.522;7.266;2023-08-30T01:55:57;20.50;99.90
1447;DHT22;717;51.522;7.266;2023-08-30T01:58:30;20.50;99.90
1447;DHT22;717;51.522;7.266;2023-08-30T02:01:00;20.50;99.90
1447;DHT22;717;51.522;7.266;2023-08-30T02:03:30;20.40;99.90
1447;DHT22;717;51.522;7.266;2023-08-30T02:06:08;20.40;99.90
1447;DHT22;717;51.522;7.266;2023-08-30T02:08:41;20.40;99.90
1447;DHT22;717;51.522;7.266;2023-08-30T02:11:19;20.40;99.90
1447;DHT22;717;51.522;7.266;2023-08-30T02:13:53;20.40;99.90
1447;DHT22;717;51.522;7.266;2023-08-30T02:16:25;20.40;99.90
1447;DHT22;717;51.522;7.266;2023-08-30T02:18:56;20.40;99.90
1447;DHT22;717;51.522;7.266;2023-08-30T02:21:27;20.40;99.90
1447;DHT22;717;51.522;7.266;2023-08-30T02:23:57;20.30;99.90
1447;DHT22;717;51.522;7.266;2023-08-30T02:26:30;20.30;99.90
1447;DHT22;717;51.522;7.266;2023-08-30T02:29:03;20.40;99.90
1447;DHT22;717;51.522;7.266;2023-08-30T02:31:33;20.30;99.90
1447;DHT22;717;51.522;7.266;2023-08-30T02:34:03;20.30;99.90
1447;DHT22;717;51.522;7.266;2023-08-30T02:36:33;20.30;99.90
1447;DHT22;717;51.522;7.266;2023-08-30T02:39:03;20.30;99.90
1447;DHT22;717;51.522;7.266;2023-08-30T02:41:33;20.30;99.90
1447;DHT22;717;51.522;7.266;2023-08-30T02:44:08;20.30;99.90
1447;DHT22;717;51.522;7.266;2023-08-30T02:46:38;20.30;99.90
1447;DHT22;717;51.522;7.266;2023-08-30T02:49:08;20.30;99.90
1447;DHT22;717;51.522;7.266;2023-08-30T02:51:39;20.30;99.90
1447;DHT22;717;51.522;7.266;2023-08-30T02:54:09;20.20;99.90
1447;DHT22;717;51.522;7.266;2023-08-30T02:56:40;20.20;99.90
1447;DHT22;717;51.522;7.266;2023-08-30T02:59:13;20.20;99.90
1447;DHT22;717;51.522;7.266;2023-08-30T03:01:44;20.10;99.90
1447;DHT22;717;51.522;7.266;2023-08-30T03:04:17;20.10;99.90
1447;DHT22;717;51.522;7.266;2023-08-30T03:06:47;20.10;99.90
1447;DHT22;717;51.522;7.266;2023-08-30T03:09:17;20.00;99.90
1447;DHT22;717;51.522;7.266;2023-08-30T03:11:47;20.00;99.90
1447;DHT22;717;51.522;7.266;2023-08-30T03:14:20;20.00;99.90
1447;DHT22;717;51.522;7.266;2023-08-30T03:16:50;20.00;99.90
1447;DHT22;717;51.522;7.266;2023-08-30T03:19:20;20.00;99.90
1447;DHT22;717;51.522;7.266;2023-08-30T03:21:50;20.00;99.90
1447;DHT22;717;51.522;7.266;2023-08-30T03:24:20;20.00;99.90
1447;DHT22;717;51.522;7.266;2023-08-30T03:26:50;20.00;99.90
1447;DHT22;717;51.522;7.266;2023-08-30T03:29:22;20.00;99.90
1447;DHT22;717;51.522;7.266;2023-08-30T03:31:52;20.00;99.90
1447;DHT22;717;51.522;7.266;2023-08-30T03:34:22;20.00;99.90
1447;DHT22;717;51.522;7.266;2023-08-30T03:36:52;20.00;99.90
1447;DHT22;717;51.522;7.266;2023-08-30T03:39:23;20.00;99.90
1447;DHT22;717;51.522;7.266;2023-08-30T03:41:53;20.00;99.90
1447;DHT22;717;51.522;7.266;2023-08-30T03:44:26;20.00;99.90
1447;DHT22;717;51.522;7.266;2023-08-30T03:46:56;20.00;99.90
1447;DHT22;717;51.522;7.266;2023-08-30T03:49:27;20.00;99.90
1447;DHT22;717;51.522;7.266;2023-08-30T03:51:57;19.90;99.90
1447;DHT22;717;51.522;7.266;2023-08-30T03:54:28;19.90;99.90
1447;DHT22;717;51.522;7.266;2023-08-30T03:56:58;19.90;99.90
1447;DHT22;717;51.522;7.266;2023-08-30T03:59:30;19.90;99.90
1447;DHT22;717;51.522;7.266;2023-08-30T04:02:00;19.90;99.90
1447;DHT22;717;51.522;7.266;2023-08-30T04:04:31;19.90;99.90
1447;DHT22;717;51.522;7.266;2023-08-30T04:07:01;19.90;99.90
1447;DHT22;717;51.522;7.266;2023-08-30T04:09:32;19.90;99.90
1447;DHT22;717;51.522;7.266;2023-08-30T04:12:04;19.90;99.90
1447;DHT22;717;51.522;7.266;2023-08-30T04:14:37;19.80;99.90
1447;DHT22;717;51.522;7.266;2023-08-30T04:17:07;19.80;99.90
1447;DHT22;717;51.522;7.266;2023-08-30T04:19:37;19.80;99.90
1447;DHT22;717;51.522;7.266;2023-08-30T04:22:08;19.80;99.90
1447;DHT22;717;51.522;7.266;2023-08-30T04:24:38;19.70;99.90
1447;DHT22;717;51.522;7.266;2023-08-30T04:27:08;19.70;99.90
1447;DHT22;717;51.522;7.266;2023-08-30T04:29:41;19.70;99.90
1447;DHT22;717;51.522;7.266;2023-08-30T04:32:12;19.70;99.90
1447;DHT22;717;51.522;7.266;2023-08-30T04:34:42;19.70;99.90
1447;DHT22;717;51.522;7.266;2023-08-30T04:37:12;19.70;99.90
1447;DHT22;717;51.522;7.266;2023-08-30T04:39:42;19.70;99.90
1447;DHT22;717;51.522;7.266;2023-08-30T04:42:12;19.70;99.90
1447;DHT22;717;51.522;7.266;2023-08-30T04:44:45;19.70;99.90
1447;DHT22;717;51.522;7.266;2023-08-30T04:47:15;19.60;99.90
1447;DHT22;717;51.522;7.266;2023-08-30T04:49:50;19.60;99.90
1447;DHT22;717;51.522;7.266;2023-08-30T04:52:20;19.60;99.90
1447;DHT22;717;51.522;7.266;2023-08-30T04:54:52;19.60;99.90
1447;DHT22;717;51.522;7.266;2023-08-30T04:57:25;19.60;99.90
1447;DHT22;717;51.522;7.266;2023-08-30T04:59:57;19.60;99.90
1447;DHT22;717;51.522;7.266;2023-08-30T05:02:31;19.60;99.90
1447;DHT22;717;51.522;7.266;2023-08-30T05:05:06;19.60;99.90
1447;DHT22;717;51.522;7.266;2023-08-30T05:07:37;19.60;99.90
1447;DHT22;717;51.522;7.266;2023-08-30T05:10:08;19.60;99.90
1447;DHT22;717;51.522;7.266;2023-08-30T05:12:38;19.60;99.90
1447;DHT22;717;51.522;7.266;2023-08-30T05:15:14;19.60;99.90
1447;DHT22;717;51.522;7.266;2023-08-30T05:17:44;19.60;99.90
1447;DHT22;717;51.522;7.266;2023-08-30T05:20:14;19.70;99.90
1447;DHT22;717;51.522;7.266;2023-08-30T05:22:44;19.60;99.90
1447;DHT22;717;51.522;7.266;2023-08-30T05:25:14;19.60;99.90
1447;DHT22;717;51.522;7.266;2023-08-30T05:27:44;19.60;99.90
1447;DHT22;717;51.522;7.266;2023-08-30T05:30:17;19.60;99.90
1447;DHT22;717;51.522;7.266;2023-08-30T05:32:51;19.60;99.90
1447;DHT22;717;51.522;7.266;2023-08-30T05:35:41;19.60;99.90
1447;DHT22;717;51.522;7.266;2023-08-30T05:38:49;19.60;99.90
1447;DHT22;717;51.522;7.266;2023-08-30T05:41:31;19.60;99.90
1447;DHT22;717;51.522;7.266;2023-08-30T05:44:02;19.60;99.90
1447;DHT22;717;51.522;7.266;2023-08-30T05:46:35;19.60;99.90
1447;DHT22;717;51.522;7.266;2023-08-30T05:49:05;19.70;99.90
1447;DHT22;717;51.522;7.266;2023-08-30T05:51:35;19.70;99.90
1447;DHT22;717;51.522;7.266;2023-08-30T05:54:05;19.70;99.90
1447;DHT22;717;51.522;7.266;2023-08-30T05:56:35;19.70;99.90
1447;DHT22;717;51.522;7.266;2023-08-30T05:59:06;19.70;99.90
1447;DHT22;717;51.522;7.266;2023-08-30T06:01:39;19.70;99.90
1447;DHT22;717;51.522;7.266;2023-08-30T06:04:09;19.80;99.90
1447;DHT22;717;51.522;7.266;2023-08-30T06:06:43;19.70;99.90
1447;DHT22;717;51.522;7.266;2023-08-30T06:09:13;19.70;99.90
1447;DHT22;717;51.522;7.266;2023-08-30T06:11:44;19.70;99.90
1447;DHT22;717;51.522;7.266;2023-08-30T06:14:14;19.70;99.90
1447;DHT22;717;51.522;7.266;2023-08-30T06:16:47;19.70;99.90
1447;DHT22;717;51.522;7.266;2023-08-30T06:19:16;19.70;99.90
1447;DHT22;717;51.522;7.266;2023-08-30T06:21:47;19.70;99.90
1447;DHT22;717;51.522;7.266;2023-08-30T06:24:17;19.70;99.90
1447;DHT22;717;51.522;7.266;2023-08-30T06:26:47;19.70;99.90
1447;DHT22;717;51.522;7.266;2023-08-30T06:29:19;19.70;99.90
1447;DHT22;717;51.522;7.266;2023-08-30T06:31:52;19.70;99.90
1447;DHT22;717;51.522;7.266;2023-08-30T06:34:22;19.70;99.90
1447;DHT22;717;51.522;7.266;2023-08-30T06:36:52;19.70;99.90
1447;DHT22;717;51.522;7.266;2023-08-30T06:39:22;19.70;99.90
1447;DHT22;717;51.522;7.266;2023-08-30T06:41:52;19.70;99.90
1447;DHT22;717;51.522;7.266;2023-08-30T06:44:26;19.70;99.90
1447;DHT22;717;51.522;7.266;2023-08-30T06:46:59;19.70;99.90
1447;DHT22;717;51.522;7.266;2023-08-30T06:49:30;19.70;99.90
1447;DHT22;717;51.522;7.266;2023-08-30T06:52:01;19.70;99.90
1447;DHT22;717;51.522;7.266;2023-08-30T06:54:34;19.70;99.90
1447;DHT22;717;51.522;7.266;2023-08-30T06:57:04;19.70;99.90
1447;DHT22;717;51.522;7.266;2023-08-30T06:59:36;19.70;99.90
1447;DHT22;717;51.522;7.266;2023-08-30T07:02:08;19.70;99.90
1447;DHT22;717;51.522;7.266;2023-08-30T07:04:39;19.70;99.90
1447;DHT22;717;51.522;7.266;2023-08-30T07:07:09;19.80;99.90
1447;DHT22;717;51.522;7.266;2023-08-30T07:09:41;19.70;99.90
1447;DHT22;717;51.522;7.266;2023-08-30T07:12:11;19.80;99.90
1447;DHT22;717;51.522;7.266;2023-08-30T07:14:42;19.80;99.90
1447;DHT22;717;51.522;7.266;2023-08-30T07:17:14;19.70;99.90
1447;DHT22;717;51.522;7.266;2023-08-30T07:19:44;19.80;99.90
1447;DHT22;717;51.522;7.266;2023-08-30T07:22:14;19.80;99.90
1447;DHT22;717;51.522;7.266;2023-08-30T07:24:45;19.80;99.90
1447;DHT22;717;51.522;7.266;2023-08-30T07:27:15;19.80;99.90
1447;DHT22;717;51.522;7.266;2023-08-30T07:29:45;19.80;99.90
1447;DHT22;717;51.522;7.266;2023-08-30T07:32:18;19.80;99.90
1447;DHT22;717;51.522;7.266;2023-08-30T07:34:48;19.90;99.90
1447;DHT22;717;51.522;7.266;2023-08-30T07:37:19;19.90;99.90
1447;DHT22;717;51.522;7.266;2023-08-30T07:39:51;19.90;99.90
1447;DHT22;717;51.522;7.266;2023-08-30T07:42:22;19.90;99.90
1447;DHT22;717;51.522;7.266;2023-08-30T07:44:52;19.90;99.90
1447;DHT22;717;51.522;7.266;2023-08-30T07:47:24;20.00;99.90
1447;DHT22;717;51.522;7.266;2023-08-30T07:49:55;20.00;99.90
1447;DHT22;717;51.522;7.266;2023-08-30T07:52:25;20.10;99.90
1447;DHT22;717;51.522;7.266;2023-08-30T07:55:11;20.10;99.90
1447;DHT22;717;51.522;7.266;2023-08-30T07:57:41;20.10;99.90
1447;DHT22;717;51.522;7.266;2023-08-30T08:00:12;20.10;99.90
1447;DHT22;717;51.522;7.266;2023-08-30T08:02:47;20.10;99.90
1447;DHT22;717;51.522;7.266;2023-08-30T08:05:17;20.20;99.90
1447;DHT22;717;51.522;7.266;2023-08-30T08:07:51;20.20;99.90
1447;DHT22;717;51.522;7.266;2023-08-30T08:10:22;20.20;99.90
1447;DHT22;717;51.522;7.266;2023-08-30T08:12:52;20.30;99.90
1447;DHT22;717;51.522;7.266;2023-08-30T08:15:24;20.30;99.90
1447;DHT22;717;51.522;7.266;2023-08-30T08:17:56;20.30;99.90
1447;DHT22;717;51.522;7.266;2023-08-30T08:20:28;20.40;99.90
1447;DHT22;717;51.522;7.266;2023-08-30T08:22:58;20.30;99.90
1447;DHT22;717;51.522;7.266;2023-08-30T08:25:28;20.40;99.90
1447;DHT22;717;51.522;7.266;2023-08-30T08:27:58;20.40;99.90
1447;DHT22;717;51.522;7.266;2023-08-30T08:30:28;20.40;99.90
1447;DHT22;717;51.522;7.266;2023-08-30T08:33:01;20.40;99.90
1447;DHT22;717;51.522;7.266;2023-08-30T08:35:31;20.50;99.90
1447;DHT22;717;51.522;7.266;2023-08-30T08:38:01;20.50;99.90
1447;DHT22;717;51.522;7.266;2023-08-30T08:40:36;20.50;99.90
1447;DHT22;717;51.522;7.266;2023-08-30T08:43:10;20.50;99.90
1447;DHT22;717;51.522;7.266;2023-08-30T08:45:41;20.60;99.90
1447;DHT22;717;51.522;7.266;2023-08-30T08:48:14;20.60;99.90
1447;DHT22;717;51.522;7.266;2023-08-30T08:50:45;20.60;99.90
1447;DHT22;717;51.522;7.266;2023-08-30T08:53:15;20.70;99.90
1447;DHT22;717;51.522;7.266;2023-08-30T08:55:46;20.70;99.90
1447;DHT22;717;51.522;7.266;2023-08-30T08:58:17;20.80;99.90
1447;DHT22;717;51.522;7.266;2023-08-30T09:00:47;20.80;99.90
1447;DHT22;717;51.522;7.266;2023-08-30T09:03:21;20.80;99.90
1447;DHT22;717;51.522;7.266;2023-08-30T09:05:52;20.90;99.90
1447;DHT22;717;51.522;7.266;2023-08-30T09:08:22;20.90;99.90
1447;DHT22;717;51.522;7.266;2023-08-30T09:10:52;20.90;99.90
1447;DHT22;717;51.522;7.266;2023-08-30T09:13:22;21.00;99.90
1447;DHT22;717;51.522;7.266;2023-08-30T09:15:53;20.90;99.90
1447;DHT22;717;51.522;7.266;2023-08-30T09:18:25;20.90;99.90
1447;DHT22;717;51.522;7.266;2023-08-30T09:21:05;21.00;99.90
1447;DHT22;717;51.522;7.266;2023-08-30T09:23:35;21.00;99.90
1447;DHT22;717;51.522;7.266;2023-08-30T09:26:06;21.00;99.90
1447;DHT22;717;51.522;7.266;2023-08-30T09:28:42;21.00;99.90
1447;DHT22;717;51.522;7.266;2023-08-30T09:31:17;21.00;99.90
1447;DHT22;717;51.522;7.266;2023-08-30T09:33:58;21.00;99.90
1447;DHT22;717;51.522;7.266;2023-08-30T09:36:33;21.00;99.90
1447;DHT22;717;51.522;7.266;2023-08-30T09:39:04;21.00;99.90
1447;DHT22;717;51.522;7.266;2023-08-30T09:41:34;21.10;99.90
1447;DHT22;717;51.522;7.266;2023-08-30T09:44:09;21.10;99.90
1447;DHT22;717;51.522;7.266;2023-08-30T09:46:42;21.10;99.90
1447;DHT22;717;51.522;7.266;2023-08-30T09:49:22;21.20;99.90
1447;DHT22;717;51.522;7.266;2023-08-30T09:51:53;21.20;99.90
1447;DHT22;717;51.522;7.266;2023-08-30T09:54:25;21.20;99.90
1447;DHT22;717;51.522;7.266;2023-08-30T09:57:06;21.30;99.90
1447;DHT22;717;51.522;7.266;2023-08-30T09:59:37;21.30;99.90
1447;DHT22;717;51.522;7.266;2023-08-30T10:02:09;21.30;99.90
1447;DHT22;717;51.522;7.266;2023-08-30T10:04:43;21.40;99.90
1447;DHT22;717;51.522;7.266;2023-08-30T10:07:14;21.40;99.90
1447;DHT22;717;51.522;7.266;2023-08-30T10:09:44;21.50;99.90
1447;DHT22;717;51.522;7.266;2023-08-30T10:12:36;21.50;99.90
1447;DHT22;717;51.522;7.266;2023-08-30T10:15:06;21.50;99.90
1447;DHT22;717;51.522;7.266;2023-08-30T10:17:38;21.50;99.90
1447;DHT22;717;51.522;7.266;2023-08-30T10:20:14;21.50;99.90
1447;DHT22;717;51.522;7.266;2023-08-30T10:22:45;21.30;99.90
1447;DHT22;717;51.522;7.266;2023-08-30T10:25:20;21.10;99.90
1447;DHT22;717;51.522;7.266;2023-08-30T10:27:52;20.90;99.90
1447;DHT22;717;51.522;7.266;2023-08-30T10:30:23;20.70;99.90
1447;DHT22;717;51.522;7.266;2023-08-30T10:32:53;20.70;99.90
1447;DHT22;717;51.522;7.266;2023-08-30T10:35:26;20.70;99.90
1447;DHT22;717;51.522;7.266;2023-08-30T10:37:57;20.70;99.90
1447;DHT22;717;51.522;7.266;2023-08-30T10:40:29;20.60;99.90
1447;DHT22;717;51.522;7.266;2023-08-30T10:43:00;20.60;99.90
1447;DHT22;717;51.522;7.266;2023-08-30T10:45:31;20.60;99.90
1447;DHT22;717;51.522;7.266;2023-08-30T10:48:01;20.70;99.90
1447;DHT22;717;51.522;7.266;2023-08-30T10:50:34;20.70;99.90
1447;DHT22;717;51.522;7.266;2023-08-30T10:53:13;20.70;99.90
1447;DHT22;717;51.522;7.266;2023-08-30T10:56:07;20.70;99.90
1447;DHT22;717;51.522;7.266;2023-08-30T10:58:41;20.70;99.90
1447;DHT22;717;51.522;7.266;2023-08-30T11:01:12;20.70;99.90
1447;DHT22;717;51.522;7.266;2023-08-30T11:03:42;20.60;99.90
1447;DHT22;717;51.522;7.266;2023-08-30T11:06:16;20.60;99.90
1447;DHT22;717;51.522;7.266;2023-08-30T11:08:47;20.50;99.90
1447;DHT22;717;51.522;7.266;2023-08-30T11:11:18;20.50;99.90
1447;DHT22;717;51.522;7.266;2023-08-30T11:13:48;20.40;99.90
1447;DHT22;717;51.522;7.266;2023-08-30T11:16:21;20.40;99.90
1447;DHT22;717;51.522;7.266;2023-08-30T11:18:51;20.30;99.90
1447;DHT22;717;51.522;7.266;2023-08-30T11:21:24;20.30;99.90
1447;DHT22;717;51.522;7.266;2023-08-30T11:23:54;20.20;99.90
1447;DHT22;717;51.522;7.266;2023-08-30T11:26:25;20.20;99.90
1447;DHT22;717;51.522;7.266;2023-08-30T11:28:55;20.10;99.90
1447;DHT22;717;51.522;7.266;2023-08-30T11:31:25;20.00;99.90
1447;DHT22;717;51.522;7.266;2023-08-30T11:33:57;20.00;99.90
1447;DHT22;717;51.522;7.266;2023-08-30T11:36:31;20.00;99.90
1447;DHT22;717;51.522;7.266;2023-08-30T11:39:02;19.90;99.90
1447;DHT22;717;51.522;7.266;2023-08-30T11:41:33;19.90;99.90
1447;DHT22;717;51.522;7.266;2023-08-30T11:44:04;19.90;99.90
1447;DHT22;717;51.522;7.266;2023-08-30T11:46:34;20.00;99.90
1447;DHT22;717;51.522;7.266;2023-08-30T11:49:04;20.00;99.90
1447;DHT22;717;51.522;7.266;2023-08-30T11:51:37;20.00;99.90
1447;DHT22;717;51.522;7.266;2023-08-30T11:54:07;20.10;99.90
1447;DHT22;717;51.522;7.266;2023-08-30T11:56:37;20.00;99.90
1447;DHT22;717;51.522;7.266;2023-08-30T11:59:18;20.00;99.90
1447;DHT22;717;51.522;7.266;2023-08-30T12:01:48;20.00;99.90
1447;DHT22;717;51.522;7.266;2023-08-30T12:04:19;20.00;99.90
1447;DHT22;717;51.522;7.266;2023-08-30T12:06:54;20.00;99.90
1447;DHT22;717;51.522;7.266;2023-08-30T12:09:30;19.90;99.90
1447;DHT22;717;51.522;7.266;2023-08-30T12:12:05;19.80;99.90
1447;DHT22;717;51.522;7.266;2023-08-30T12:14:36;19.80;99.90
1447;DHT22;717;51.522;7.266;2023-08-30T12:17:08;19.80;99.90
1447;DHT22;717;51.522;7.266;2023-08-30T12:19:40;19.80;99.90
1447;DHT22;717;51.522;7.266;2023-08-30T12:22:12;19.70;99.90
1447;DHT22;717;51.522;7.266;2023-08-30T12:24:43;19.80;99.90
1447;DHT22;717;51.522;7.266;2023-08-30T12:27:13;19.70;99.90
1447;DHT22;717;51.522;7.266;2023-08-30T12:29:43;19.80;99.90
1447;DHT22;717;51.522;7.266;2023-08-30T12:32:13;19.70;99.90
1447;DHT22;717;51.522;7.266;2023-08-30T12:34:43;19.70;99.90
1447;DHT22;717;51.522;7.266;2023-08-30T12:37:16;19.60;99.90
1447;DHT22;717;51.522;7.266;2023-08-30T12:39:46;19.60;99.90
1447;DHT22;717;51.522;7.266;2023-08-30T12:42:16;19.50;99.90
1447;DHT22;717;51.522;7.266;2023-08-30T12:44:46;19.50;99.90
1447;DHT22;717;51.522;7.266;2023-08-30T12:47:16;19.50;99.90
1447;DHT22;717;51.522;7.266;2023-08-30T12:49:46;19.40;99.90
1447;DHT22;717;51.522;7.266;2023-08-30T12:52:19;19.40;99.90
1447;DHT22;717;51.522;7.266;2023-08-30T12:54:49;19.40;99.90
1447;DHT22;717;51.522;7.266;2023-08-30T12:57:21;19.40;99.90
1447;DHT22;717;51.522;7.266;2023-08-30T12:59:51;19.50;99.90
1447;DHT22;717;51.522;7.266;2023-08-30T13:02:21;19.40;99.90
1447;DHT22;717;51.522;7.266;2023-08-30T13:04:51;19.40;99.90
1447;DHT22;717;51.522;7.266;2023-08-30T13:07:24;19.40;99.90
1447;DHT22;717;51.522;7.266;2023-08-30T13:09:54;19.40;99.90
1447;DHT22;717;51.522;7.266;2023-08-30T13:12:24;19.40;99.90
1447;DHT22;717;51.522;7.266;2023-08-30T13:14:54;19.40;99.90
1447;DHT22;717;51.522;7.266;2023-08-30T13:17:24;19.40;99.90
1447;DHT22;717;51.522;7.266;2023-08-30T13:19:54;19.40;99.90
1447;DHT22;717;51.522;7.266;2023-08-30T13:22:28;19.40;99.90
1447;DHT22;717;51.522;7.266;2023-08-30T13:24:58;19.40;99.90
1447;DHT22;717;51.522;7.266;2023-08-30T13:27:29;19.40;99.90
1447;DHT22;717;51.522;7.266;2023-08-30T13:29:59;19.40;99.90
1447;DHT22;717;51.522;7.266;2023-08-30T13:32:29;19.40;99.90
1447;DHT22;717;51.522;7.266;2023-08-30T13:35:00;19.30;99.90
1447;DHT22;717;51.522;7.266;2023-08-30T13:37:33;19.20;99.90
1447;DHT22;717;51.522;7.266;2023-08-30T13:40:04;19.20;99.90
1447;DHT22;717;51.522;7.266;2023-08-30T13:42:34;19.20;99.90
1447;DHT22;717;51.522;7.266;2023-08-30T13:45:05;19.10;99.90
1447;DHT22;717;51.522;7.266;2023-08-30T13:47:36;19.10;99.90
1447;DHT22;717;51.522;7.266;2023-08-30T13:50:07;19.10;99.90
1447;DHT22;717;51.522;7.266;2023-08-30T13:52:40;19.10;99.90
1447;DHT22;717;51.522;7.266;2023-08-30T13:55:10;19.10;99.90
1447;DHT22;717;51.522;7.266;2023-08-30T13:57:40;19.10;99.90
1447;DHT22;717;51.522;7.266;2023-08-30T14:00:12;19.10;99.90
1447;DHT22;717;51.522;7.266;2023-08-30T14:02:42;19.00;99.90
1447;DHT22;717;51.522;7.266;2023-08-30T14:05:12;19.00;99.90
1447;DHT22;717;51.522;7.266;2023-08-30T14:07:45;19.00;99.90
1447;DHT22;717;51.522;7.266;2023-08-30T14:10:15;19.00;99.90
1447;DHT22;717;51.522;7.266;2023-08-30T14:12:47;18.90;99.90
1447;DHT22;717;51.522;7.266;2023-08-30T14:15:17;18.90;99.90
1447;DHT22;717;51.522;7.266;2023-08-30T14:17:48;18.80;99.90
1447;DHT22;717;51.522;7.266;2023-08-30T14:20:18;18.80;99.90
1447;DHT22;717;51.522;7.266;2023-08-30T14:22:50;18.80;99.90
1447;DHT22;717;51.522;7.266;2023-08-30T14:25:20;18.70;99.90
1447;DHT22;717;51.522;7.266;2023-08-30T14:27:50;18.70;99.90
1447;DHT22;717;51.522;7.266;2023-08-30T14:30:22;18.70;99.90
1447;DHT22;717;51.522;7.266;2023-08-30T14:32:52;18.70;99.90
1447;DHT22;717;51.522;7.266;2023-08-30T14:35:22;18.70;99.90
1447;DHT22;717;51.522;7.266;2023-08-30T14:37:55;18.70;99.90
1447;DHT22;717;51.522;7.266;2023-08-30T14:40:25;18.70;99.90
1447;DHT22;717;51.522;7.266;2023-08-30T14:42:55;18.80;99.90
1447;DHT22;717;51.522;7.266;2023-08-30T14:45:25;18.80;99.90
1447;DHT22;717;51.522;7.266;2023-08-30T14:47:56;18.90;99.90
1447;DHT22;717;51.522;7.266;2023-08-30T14:50:26;18.90;99.90
1447;DHT22;717;51.522;7.266;2023-08-30T14:52:58;18.90;99.90
1447;DHT22;717;51.522;7.266;2023-08-30T14:55:28;19.00;99.90
1447;DHT22;717;51.522;7.266;2023-08-30T14:57:59;18.90;99.90
1447;DHT22;717;51.522;7.266;2023-08-30T15:00:29;19.00;99.90
1447;DHT22;717;51.522;7.266;2023-08-30T15:02:59;19.00;99.90
1447;DHT22;717;51.522;7.266;2023-08-30T15:05:29;18.90;99.90
1447;DHT22;717;51.522;7.266;2023-08-30T15:08:02;18.90;99.90
1447;DHT22;717;51.522;7.266;2023-08-30T15:10:33;18.90;99.90
1447;DHT22;717;51.522;7.266;2023-08-30T15:13:03;18.90;99.90
1447;DHT22;717;51.522;7.266;2023-08-30T15:15:33;18.80;99.90
1447;DHT22;717;51.522;7.266;2023-08-30T15:18:04;18.70;99.90
1447;DHT22;717;51.522;7.266;2023-08-30T15:20:35;18.70;99.90
1447;DHT22;717;51.522;7.266;2023-08-30T15:23:12;18.60;99.90
1447;DHT22;717;51.522;7.266;2023-08-30T15:25:44;18.60;99.90
1447;DHT22;717;51.522;7.266;2023-08-30T15:28:15;18.60;99.90
1447;DHT22;717;51.522;7.266;2023-08-30T15:30:46;18.60;99.90
1447;DHT22;717;51.522;7.266;2023-08-30T15:33:18;18.50;99.90
1447;DHT22;717;51.522;7.266;2023-08-30T15:35:48;18.50;99.90
1447;DHT22;717;51.522;7.266;2023-08-30T15:38:20;18.40;99.90
1447;DHT22;717;51.522;7.266;2023-08-30T15:40:53;18.40;99.90
1447;DHT22;717;51.522;7.266;2023-08-30T15:43:25;18.40;99.90
1447;DHT22;717;51.522;7.266;2023-08-30T15:45:55;18.40;99.90
1447;DHT22;717;51.522;7.266;2023-08-30T15:48:25;18.40;99.90
1447;DHT22;717;51.522;7.266;2023-08-30T15:50:55;18.40;99.90
1447;DHT22;717;51.522;7.266;2023-08-30T15:53:28;18.40;99.90
1447;DHT22;717;51.522;7.266;2023-08-30T15:55:58;18.40;99.90
1447;DHT22;717;51.522;7.266;2023-08-30T15:58:28;18.40;99.90
1447;DHT22;717;51.522;7.266;2023-08-30T16:01:02;18.40;99.90
1447;DHT22;717;51.522;7.266;2023-08-30T16:03:32;18.50;99.90
1447;DHT22;717;51.522;7.266;2023-08-30T16:06:04;18.50;99.90
1447;DHT22;717;51.522;7.266;2023-08-30T16:08:37;18.50;99.90
1447;DHT22;717;51.522;7.266;2023-08-30T16:11:07;18.60;99.90
1447;DHT22;717;51.522;7.266;2023-08-30T16:13:37;18.60;99.90
1447;DHT22;717;51.522;7.266;2023-08-30T16:16:07;18.70;99.90
1447;DHT22;717;51.522;7.266;2023-08-30T16:18:37;18.70;99.90
1447;DHT22;717;51.522;7.266;2023-08-30T16:21:07;18.70;99.90
1447;DHT22;717;51.522;7.266;2023-08-30T16:23:40;18.70;99.90
1447;DHT22;717;51.522;7.266;2023-08-30T16:26:10;18.80;99.90
1447;DHT22;717;51.522;7.266;2023-08-30T16:28:40;18.80;99.90
1447;DHT22;717;51.522;7.266;2023-08-30T16:31:11;18.90;99.90
1447;DHT22;717;51.522;7.266;2023-08-30T16:33:41;18.90;99.90
1447;DHT22;717;51.522;7.266;2023-08-30T16:36:11;18.90;99.90
1447;DHT22;717;51.522;7.266;2023-08-30T16:38:44;18.90;99.90
1447;DHT22;717;51.522;7.266;2023-08-30T16:41:15;19.00;99.90
1447;DHT22;717;51.522;7.266;2023-08-30T16:43:45;19.00;99.90
1447;DHT22;717;51.522;7.266;2023-08-30T16:46:15;19.00;99.90